sensor_id;sensor_type;location;lat;lon;timestamp;P1;durP1;ratioP1;P2;durP2;ratioP2
7933;SDS011;4012;48.896;9.192;2023-04-15T00:01:29;5.10;;;2.80;;
7933;SDS011;4012;48.896;9.192;2023-04-15T00:03:57;7.40;;;3.03;;
7933;SDS011;4012;48.896;9.192;2023-04-15T00:06:23;6.30;;;3.50;;
7933;SDS011;4012;48.896;9.192;2023-04-15T00:08:49;3.30;;;2.67;;
7933;SDS011;4012;48.896;9.192;2023-04-15T00:11:14;6.07;;;3.33;;
7933;SDS011;4012;48.896;9.192;2023-04-15T00:13:41;4.23;;;3.20;;
7933;SDS011;4012;48.896;9.192;2023-04-15T00:16:07;5.57;;;3.57;;
7933;SDS011;4012;48.896;9.192;2023-04-15T00:18:33;5.07;;;3.00;;
7933;SDS011;4012;48.896;9.192;2023-04-15T00:20:59;8.17;;;3.23;;
7933;SDS011;4012;48.896;9.192;2023-04-15T00:23:25;6.37;;;3.10;;
7933;SDS011;4012;48.896;9.192;2023-04-15T00:25:51;4.23;;;2.87;;
7933;SDS011;4012;48.896;9.192;2023-04-15T00:28:17;6.77;;;4.00;;
7933;SDS011;4012;48.896;9.192;2023-04-15T00:30:43;5.87;;;3.10;;
7933;SDS011;4012;48.896;9.192;2023-04-15T00:33:09;6.07;;;3.23;;
7933;SDS011;4012;48.896;9.192;2023-04-15T00:35:35;5.07;;;2.80;;
7933;SDS011;4012;48.896;9.192;2023-04-15T00:38:01;9.17;;;3.07;;
7933;SDS011;4012;48.896;9.192;2023-04-15T00:40:27;7.10;;;3.53;;
7933;SDS011;4012;48.896;9.192;2023-04-15T00:42:53;3.33;;;2.93;;
7933;SDS011;4012;48.896;9.192;2023-04-15T00:45:19;5.83;;;3.10;;
7933;SDS011;4012;48.896;9.192;2023-04-15T00:47:44;4.70;;;3.43;;
7933;SDS011;4012;48.896;9.192;2023-04-15T00:50:10;10.27;;;3.43;;
7933;SDS011;4012;48.896;9.192;2023-04-15T00:52:36;8.10;;;3.43;;
7933;SDS011;4012;48.896;9.192;2023-04-15T00:55:03;5.17;;;2.97;;
7933;SDS011;4012;48.896;9.192;2023-04-15T00:57:29;4.17;;;3.17;;
7933;SDS011;4012;48.896;9.192;2023-04-15T00:59:55;6.83;;;3.33;;
7933;SDS011;4012;48.896;9.192;2023-04-15T01:02:22;5.90;;;2.87;;
7933;SDS011;4012;48.896;9.192;2023-04-15T01:04:48;4.87;;;3.13;;
7933;SDS011;4012;48.896;9.192;2023-04-15T01:07:14;5.10;;;3.17;;
7933;SDS011;4012;48.896;9.192;2023-04-15T01:09:40;9.50;;;3.10;;
7933;SDS011;4012;48.896;9.192;2023-04-15T01:12:06;6.80;;;3.53;;
7933;SDS011;4012;48.896;9.192;2023-04-15T01:14:36;5.93;;;3.27;;
7933;SDS011;4012;48.896;9.192;2023-04-15T01:17:01;5.80;;;3.37;;
7933;SDS011;4012;48.896;9.192;2023-04-15T01:19:27;5.93;;;3.60;;
7933;SDS011;4012;48.896;9.192;2023-04-15T01:21:53;6.17;;;3.00;;
7933;SDS011;4012;48.896;9.192;2023-04-15T01:24:19;5.47;;;3.37;;
7933;SDS011;4012;48.896;9.192;2023-04-15T01:26:45;6.70;;;3.23;;
7933;SDS011;4012;48.896;9.192;2023-04-15T01:29:11;7.17;;;3.53;;
7933;SDS011;4012;48.896;9.192;2023-04-15T01:31:37;3.83;;;3.23;;
7933;SDS011;4012;48.896;9.192;2023-04-15T01:34:03;6.03;;;3.23;;
7933;SDS011;4012;48.896;9.192;2023-04-15T01:36:28;5.20;;;4.23;;
7933;SDS011;4012;48.896;9.192;2023-04-15T01:38:55;8.87;;;3.73;;
7933;SDS011;4012;48.896;9.192;2023-04-15T01:41:24;9.00;;;3.67;;
7933;SDS011;4012;48.896;9.192;2023-04-15T01:43:52;5.03;;;3.30;;
7933;SDS011;4012;48.896;9.192;2023-04-15T01:46:18;5.60;;;3.43;;
7933;SDS011;4012;48.896;9.192;2023-04-15T01:48:44;5.67;;;3.30;;
7933;SDS011;4012;48.896;9.192;2023-04-15T01:51:10;7.40;;;3.57;;
7933;SDS011;4012;48.896;9.192;2023-04-15T01:53:36;5.30;;;3.23;;
7933;SDS011;4012;48.896;9.192;2023-04-15T01:56:01;3.73;;;3.23;;
7933;SDS011;4012;48.896;9.192;2023-04-15T01:58:27;6.57;;;3.53;;
7933;SDS011;4012;48.896;9.192;2023-04-15T02:00:52;5.93;;;3.70;;
7933;SDS011;4012;48.896;9.192;2023-04-15T02:03:18;6.93;;;3.60;;
7933;SDS011;4012;48.896;9.192;2023-04-15T02:05:44;6.17;;;3.63;;
7933;SDS011;4012;48.896;9.192;2023-04-15T02:08:09;5.43;;;3.83;;
7933;SDS011;4012;48.896;9.192;2023-04-15T02:10:36;5.63;;;3.70;;
7933;SDS011;4012;48.896;9.192;2023-04-15T02:13:01;12.57;;;4.03;;
7933;SDS011;4012;48.896;9.192;2023-04-15T02:15:27;4.43;;;3.50;;
7933;SDS011;4012;48.896;9.192;2023-04-15T02:17:52;6.40;;;3.70;;
7933;SDS011;4012;48.896;9.192;2023-04-15T02:20:19;4.63;;;3.57;;
7933;SDS011;4012;48.896;9.192;2023-04-15T02:22:45;7.27;;;3.17;;
7933;SDS011;4012;48.896;9.192;2023-04-15T02:25:12;7.93;;;4.00;;
7933;SDS011;4012;48.896;9.192;2023-04-15T02:27:38;6.40;;;4.03;;
7933;SDS011;4012;48.896;9.192;2023-04-15T02:30:04;5.30;;;3.70;;
7933;SDS011;4012;48.896;9.192;2023-04-15T02:32:31;4.60;;;3.87;;
7933;SDS011;4012;48.896;9.192;2023-04-15T02:35:00;7.97;;;4.13;;
7933;SDS011;4012;48.896;9.192;2023-04-15T02:37:27;7.83;;;3.77;;
7933;SDS011;4012;48.896;9.192;2023-04-15T02:39:55;8.73;;;3.70;;
7933;SDS011;4012;48.896;9.192;2023-04-15T02:42:20;6.50;;;3.80;;
7933;SDS011;4012;48.896;9.192;2023-04-15T02:44:46;5.90;;;3.53;;
7933;SDS011;4012;48.896;9.192;2023-04-15T02:47:11;5.83;;;3.33;;
7933;SDS011;4012;48.896;9.192;2023-04-15T02:49:38;7.63;;;3.60;;
7933;SDS011;4012;48.896;9.192;2023-04-15T02:52:04;4.47;;;3.37;;
7933;SDS011;4012;48.896;9.192;2023-04-15T02:54:31;5.57;;;3.10;;
7933;SDS011;4012;48.896;9.192;2023-04-15T02:56:58;6.53;;;3.43;;
7933;SDS011;4012;48.896;9.192;2023-04-15T02:59:23;4.90;;;3.17;;
7933;SDS011;4012;48.896;9.192;2023-04-15T03:01:49;9.20;;;3.60;;
7933;SDS011;4012;48.896;9.192;2023-04-15T03:04:15;6.00;;;3.90;;
7933;SDS011;4012;48.896;9.192;2023-04-15T03:06:41;4.23;;;3.13;;
7933;SDS011;4012;48.896;9.192;2023-04-15T03:09:06;5.10;;;3.53;;
7933;SDS011;4012;48.896;9.192;2023-04-15T03:11:32;5.83;;;3.30;;
7933;SDS011;4012;48.896;9.192;2023-04-15T03:13:59;7.03;;;3.47;;
7933;SDS011;4012;48.896;9.192;2023-04-15T03:16:25;6.00;;;3.43;;
7933;SDS011;4012;48.896;9.192;2023-04-15T03:18:51;6.00;;;3.73;;
7933;SDS011;4012;48.896;9.192;2023-04-15T03:21:16;3.83;;;2.70;;
7933;SDS011;4012;48.896;9.192;2023-04-15T03:23:43;5.40;;;3.77;;
7933;SDS011;4012;48.896;9.192;2023-04-15T03:26:09;6.20;;;3.73;;
7933;SDS011;4012;48.896;9.192;2023-04-15T03:28:54;7.17;;;4.07;;
7933;SDS011;4012;48.896;9.192;2023-04-15T03:31:20;6.80;;;3.73;;
7933;SDS011;4012;48.896;9.192;2023-04-15T03:33:46;7.27;;;3.80;;
7933;SDS011;4012;48.896;9.192;2023-04-15T03:36:11;7.60;;;3.43;;
7933;SDS011;4012;48.896;9.192;2023-04-15T03:38:37;7.80;;;3.67;;
7933;SDS011;4012;48.896;9.192;2023-04-15T03:41:03;5.23;;;3.37;;
7933;SDS011;4012;48.896;9.192;2023-04-15T03:43:29;5.10;;;3.10;;
7933;SDS011;4012;48.896;9.192;2023-04-15T03:45:54;5.53;;;3.63;;
7933;SDS011;4012;48.896;9.192;2023-04-15T03:48:20;5.33;;;3.73;;
7933;SDS011;4012;48.896;9.192;2023-04-15T03:50:45;7.53;;;3.37;;
7933;SDS011;4012;48.896;9.192;2023-04-15T03:53:12;7.13;;;4.00;;
7933;SDS011;4012;48.896;9.192;2023-04-15T03:55:37;5.37;;;3.43;;
7933;SDS011;4012;48.896;9.192;2023-04-15T03:58:03;6.23;;;3.83;;
7933;SDS011;4012;48.896;9.192;2023-04-15T04:00:29;13.30;;;4.00;;
7933;SDS011;4012;48.896;9.192;2023-04-15T04:02:55;8.53;;;3.70;;
7933;SDS011;4012;48.896;9.192;2023-04-15T04:05:20;4.97;;;3.30;;
7933;SDS011;4012;48.896;9.192;2023-04-15T04:07:46;4.70;;;3.33;;
7933;SDS011;4012;48.896;9.192;2023-04-15T04:10:11;5.67;;;3.70;;
7933;SDS011;4012;48.896;9.192;2023-04-15T04:12:37;6.87;;;3.80;;
7933;SDS011;4012;48.896;9.192;2023-04-15T04:15:03;7.03;;;3.53;;
7933;SDS011;4012;48.896;9.192;2023-04-15T04:17:29;5.63;;;3.47;;
7933;SDS011;4012;48.896;9.192;2023-04-15T04:19:55;6.97;;;3.67;;
7933;SDS011;4012;48.896;9.192;2023-04-15T04:22:21;4.73;;;3.37;;
7933;SDS011;4012;48.896;9.192;2023-04-15T04:24:48;9.27;;;3.50;;
7933;SDS011;4012;48.896;9.192;2023-04-15T04:27:13;7.20;;;3.60;;
7933;SDS011;4012;48.896;9.192;2023-04-15T04:29:39;6.57;;;3.40;;
7933;SDS011;4012;48.896;9.192;2023-04-15T04:32:05;7.67;;;4.07;;
7933;SDS011;4012;48.896;9.192;2023-04-15T04:34:30;4.87;;;3.57;;
7933;SDS011;4012;48.896;9.192;2023-04-15T04:36:56;6.70;;;4.10;;
7933;SDS011;4012;48.896;9.192;2023-04-15T04:39:22;5.60;;;3.17;;
7933;SDS011;4012;48.896;9.192;2023-04-15T04:41:48;8.30;;;3.63;;
7933;SDS011;4012;48.896;9.192;2023-04-15T04:44:13;4.30;;;3.03;;
7933;SDS011;4012;48.896;9.192;2023-04-15T04:46:39;5.77;;;3.73;;
7933;SDS011;4012;48.896;9.192;2023-04-15T04:49:05;5.43;;;3.33;;
7933;SDS011;4012;48.896;9.192;2023-04-15T04:51:31;3.67;;;3.17;;
7933;SDS011;4012;48.896;9.192;2023-04-15T04:53:56;4.80;;;3.20;;
7933;SDS011;4012;48.896;9.192;2023-04-15T04:56:22;6.27;;;3.13;;
7933;SDS011;4012;48.896;9.192;2023-04-15T04:58:48;6.70;;;3.03;;
7933;SDS011;4012;48.896;9.192;2023-04-15T05:01:13;5.87;;;3.20;;
7933;SDS011;4012;48.896;9.192;2023-04-15T05:03:39;5.27;;;3.10;;
7933;SDS011;4012;48.896;9.192;2023-04-15T05:06:05;4.87;;;3.13;;
7933;SDS011;4012;48.896;9.192;2023-04-15T05:08:32;6.80;;;3.60;;
7933;SDS011;4012;48.896;9.192;2023-04-15T05:10:58;3.50;;;3.17;;
7933;SDS011;4012;48.896;9.192;2023-04-15T05:13:24;3.73;;;2.87;;
7933;SDS011;4012;48.896;9.192;2023-04-15T05:15:50;5.73;;;3.00;;
7933;SDS011;4012;48.896;9.192;2023-04-15T05:18:15;6.17;;;3.97;;
7933;SDS011;4012;48.896;9.192;2023-04-15T05:20:41;7.87;;;4.00;;
7933;SDS011;4012;48.896;9.192;2023-04-15T05:23:07;7.37;;;3.87;;
7933;SDS011;4012;48.896;9.192;2023-04-15T05:25:32;8.77;;;3.87;;
7933;SDS011;4012;48.896;9.192;2023-04-15T05:27:58;8.50;;;4.20;;
7933;SDS011;4012;48.896;9.192;2023-04-15T05:30:24;8.30;;;4.40;;
7933;SDS011;4012;48.896;9.192;2023-04-15T05:32:50;10.77;;;4.77;;
7933;SDS011;4012;48.896;9.192;2023-04-15T05:35:16;8.17;;;3.90;;
7933;SDS011;4012;48.896;9.192;2023-04-15T05:37:41;4.80;;;3.53;;
7933;SDS011;4012;48.896;9.192;2023-04-15T05:40:07;7.23;;;4.30;;
7933;SDS011;4012;48.896;9.192;2023-04-15T05:42:34;6.13;;;3.80;;
7933;SDS011;4012;48.896;9.192;2023-04-15T05:45:00;6.23;;;3.80;;
7933;SDS011;4012;48.896;9.192;2023-04-15T05:47:29;6.07;;;4.23;;
7933;SDS011;4012;48.896;9.192;2023-04-15T05:49:55;7.97;;;3.97;;
7933;SDS011;4012;48.896;9.192;2023-04-15T05:52:20;6.70;;;3.80;;
7933;SDS011;4012;48.896;9.192;2023-04-15T05:54:46;6.17;;;3.80;;
7933;SDS011;4012;48.896;9.192;2023-04-15T05:57:11;5.27;;;4.30;;
7933;SDS011;4012;48.896;9.192;2023-04-15T05:59:37;9.00;;;4.37;;
7933;SDS011;4012;48.896;9.192;2023-04-15T06:02:03;7.93;;;4.13;;
7933;SDS011;4012;48.896;9.192;2023-04-15T06:04:28;6.67;;;3.83;;
7933;SDS011;4012;48.896;9.192;2023-04-15T06:06:54;8.97;;;4.20;;
7933;SDS011;4012;48.896;9.192;2023-04-15T06:09:20;6.80;;;4.30;;
7933;SDS011;4012;48.896;9.192;2023-04-15T06:11:45;5.40;;;4.00;;
7933;SDS011;4012;48.896;9.192;2023-04-15T06:14:11;5.80;;;4.30;;
7933;SDS011;4012;48.896;9.192;2023-04-15T06:16:36;6.77;;;3.67;;
7933;SDS011;4012;48.896;9.192;2023-04-15T06:19:02;6.00;;;3.10;;
7933;SDS011;4012;48.896;9.192;2023-04-15T06:21:28;7.13;;;4.20;;
7933;SDS011;4012;48.896;9.192;2023-04-15T06:23:54;4.50;;;3.60;;
7933;SDS011;4012;48.896;9.192;2023-04-15T06:26:20;5.53;;;3.30;;
7933;SDS011;4012;48.896;9.192;2023-04-15T06:28:46;5.80;;;3.17;;
7933;SDS011;4012;48.896;9.192;2023-04-15T06:31:11;5.30;;;3.60;;
7933;SDS011;4012;48.896;9.192;2023-04-15T06:33:37;6.80;;;3.50;;
7933;SDS011;4012;48.896;9.192;2023-04-15T06:36:03;5.97;;;3.20;;
7933;SDS011;4012;48.896;9.192;2023-04-15T06:38:29;6.30;;;3.40;;
7933;SDS011;4012;48.896;9.192;2023-04-15T06:40:55;5.83;;;3.53;;
7933;SDS011;4012;48.896;9.192;2023-04-15T06:43:21;5.73;;;3.90;;
7933;SDS011;4012;48.896;9.192;2023-04-15T06:45:46;6.73;;;3.73;;
7933;SDS011;4012;48.896;9.192;2023-04-15T06:48:12;5.70;;;3.50;;
7933;SDS011;4012;48.896;9.192;2023-04-15T06:50:37;4.43;;;3.40;;
7933;SDS011;4012;48.896;9.192;2023-04-15T06:53:03;7.97;;;3.70;;
7933;SDS011;4012;48.896;9.192;2023-04-15T06:55:29;7.30;;;3.57;;
7933;SDS011;4012;48.896;9.192;2023-04-15T06:57:55;5.57;;;3.30;;
7933;SDS011;4012;48.896;9.192;2023-04-15T07:00:21;7.10;;;3.63;;
7933;SDS011;4012;48.896;9.192;2023-04-15T07:02:46;4.30;;;3.03;;
7933;SDS011;4012;48.896;9.192;2023-04-15T07:05:12;6.87;;;3.53;;
7933;SDS011;4012;48.896;9.192;2023-04-15T07:07:38;6.73;;;3.70;;
7933;SDS011;4012;48.896;9.192;2023-04-15T07:10:03;5.90;;;3.30;;
7933;SDS011;4012;48.896;9.192;2023-04-15T07:12:30;6.27;;;3.67;;
7933;SDS011;4012;48.896;9.192;2023-04-15T07:14:55;6.53;;;3.83;;
7933;SDS011;4012;48.896;9.192;2023-04-15T07:17:21;7.40;;;4.17;;
7933;SDS011;4012;48.896;9.192;2023-04-15T07:19:46;6.20;;;4.00;;
7933;SDS011;4012;48.896;9.192;2023-04-15T07:22:12;5.03;;;3.57;;
7933;SDS011;4012;48.896;9.192;2023-04-15T07:24:37;8.93;;;4.07;;
7933;SDS011;4012;48.896;9.192;2023-04-15T07:27:03;4.37;;;3.67;;
7933;SDS011;4012;48.896;9.192;2023-04-15T07:29:28;6.03;;;3.77;;
7933;SDS011;4012;48.896;9.192;2023-04-15T07:31:54;7.57;;;3.80;;
7933;SDS011;4012;48.896;9.192;2023-04-15T07:34:21;4.50;;;3.73;;
7933;SDS011;4012;48.896;9.192;2023-04-15T07:36:46;4.43;;;3.47;;
7933;SDS011;4012;48.896;9.192;2023-04-15T07:39:16;3.63;;;3.20;;
7933;SDS011;4012;48.896;9.192;2023-04-15T07:41:42;5.63;;;3.40;;
7933;SDS011;4012;48.896;9.192;2023-04-15T07:44:07;5.63;;;3.67;;
7933;SDS011;4012;48.896;9.192;2023-04-15T07:46:33;4.67;;;2.90;;
7933;SDS011;4012;48.896;9.192;2023-04-15T07:48:59;4.20;;;3.10;;
7933;SDS011;4012;48.896;9.192;2023-04-15T07:51:25;5.50;;;3.70;;
7933;SDS011;4012;48.896;9.192;2023-04-15T07:53:50;5.77;;;3.60;;
7933;SDS011;4012;48.896;9.192;2023-04-15T07:56:16;4.43;;;3.50;;
7933;SDS011;4012;48.896;9.192;2023-04-15T07:58:42;4.83;;;3.40;;
7933;SDS011;4012;48.896;9.192;2023-04-15T08:01:07;7.20;;;3.90;;
7933;SDS011;4012;48.896;9.192;2023-04-15T08:03:33;3.53;;;2.90;;
7933;SDS011;4012;48.896;9.192;2023-04-15T08:05:59;7.27;;;4.13;;
7933;SDS011;4012;48.896;9.192;2023-04-15T08:08:24;5.07;;;3.30;;
7933;SDS011;4012;48.896;9.192;2023-04-15T08:10:50;6.10;;;3.80;;
7933;SDS011;4012;48.896;9.192;2023-04-15T08:13:16;4.63;;;3.43;;
7933;SDS011;4012;48.896;9.192;2023-04-15T08:15:42;5.00;;;3.17;;
7933;SDS011;4012;48.896;9.192;2023-04-15T08:18:08;5.20;;;3.80;;
7933;SDS011;4012;48.896;9.192;2023-04-15T08:20:33;6.13;;;3.73;;
7933;SDS011;4012;48.896;9.192;2023-04-15T08:22:59;5.13;;;3.20;;
7933;SDS011;4012;48.896;9.192;2023-04-15T08:25:25;4.20;;;2.70;;
7933;SDS011;4012;48.896;9.192;2023-04-15T08:27:51;5.17;;;3.10;;
7933;SDS011;4012;48.896;9.192;2023-04-15T08:30:19;4.93;;;3.57;;
7933;SDS011;4012;48.896;9.192;2023-04-15T08:32:45;5.77;;;2.83;;
7933;SDS011;4012;48.896;9.192;2023-04-15T08:35:11;5.60;;;2.57;;
7933;SDS011;4012;48.896;9.192;2023-04-15T08:37:37;4.07;;;2.87;;
7933;SDS011;4012;48.896;9.192;2023-04-15T08:40:03;3.93;;;2.50;;
7933;SDS011;4012;48.896;9.192;2023-04-15T08:42:35;5.00;;;3.47;;
7933;SDS011;4012;48.896;9.192;2023-04-15T08:45:05;4.57;;;2.93;;
7933;SDS011;4012;48.896;9.192;2023-04-15T08:47:35;4.20;;;2.40;;
7933;SDS011;4012;48.896;9.192;2023-04-15T08:50:03;3.80;;;2.57;;
7933;SDS011;4012;48.896;9.192;2023-04-15T08:52:33;3.87;;;2.40;;
7933;SDS011;4012;48.896;9.192;2023-04-15T08:54:59;4.53;;;2.57;;
7933;SDS011;4012;48.896;9.192;2023-04-15T08:57:29;3.00;;;2.20;;
7933;SDS011;4012;48.896;9.192;2023-04-15T08:59:55;4.00;;;2.47;;
7933;SDS011;4012;48.896;9.192;2023-04-15T09:02:22;4.40;;;2.40;;
7933;SDS011;4012;48.896;9.192;2023-04-15T09:04:49;5.10;;;3.07;;
7933;SDS011;4012;48.896;9.192;2023-04-15T09:07:15;2.07;;;1.87;;
7933;SDS011;4012;48.896;9.192;2023-04-15T09:09:41;4.27;;;2.50;;
7933;SDS011;4012;48.896;9.192;2023-04-15T09:12:07;3.70;;;2.50;;
7933;SDS011;4012;48.896;9.192;2023-04-15T09:14:33;3.27;;;2.57;;
7933;SDS011;4012;48.896;9.192;2023-04-15T09:17:00;4.00;;;3.17;;
7933;SDS011;4012;48.896;9.192;2023-04-15T09:19:26;5.13;;;2.33;;
7933;SDS011;4012;48.896;9.192;2023-04-15T09:21:53;3.13;;;2.47;;
7933;SDS011;4012;48.896;9.192;2023-04-15T09:24:21;2.60;;;2.23;;
7933;SDS011;4012;48.896;9.192;2023-04-15T09:26:47;4.33;;;2.80;;
7933;SDS011;4012;48.896;9.192;2023-04-15T09:29:15;3.50;;;2.37;;
7933;SDS011;4012;48.896;9.192;2023-04-15T09:31:42;2.50;;;2.30;;
7933;SDS011;4012;48.896;9.192;2023-04-15T09:34:08;3.80;;;2.30;;
7933;SDS011;4012;48.896;9.192;2023-04-15T09:39:11;2.53;;;2.33;;
7933;SDS011;4012;48.896;9.192;2023-04-15T09:41:37;5.63;;;2.70;;
7933;SDS011;4012;48.896;9.192;2023-04-15T09:44:03;3.40;;;2.33;;
7933;SDS011;4012;48.896;9.192;2023-04-15T09:46:41;2.90;;;2.40;;
7933;SDS011;4012;48.896;9.192;2023-04-15T09:49:08;3.90;;;2.20;;
7933;SDS011;4012;48.896;9.192;2023-04-15T09:51:34;6.67;;;2.50;;
7933;SDS011;4012;48.896;9.192;2023-04-15T09:54:01;3.63;;;2.37;;
7933;SDS011;4012;48.896;9.192;2023-04-15T09:56:34;4.87;;;2.40;;
7933;SDS011;4012;48.896;9.192;2023-04-15T09:59:01;2.77;;;2.30;;
7933;SDS011;4012;48.896;9.192;2023-04-15T10:01:27;2.33;;;2.13;;
7933;SDS011;4012;48.896;9.192;2023-04-15T10:03:53;2.73;;;1.93;;
7933;SDS011;4012;48.896;9.192;2023-04-15T10:06:22;2.67;;;2.03;;
7933;SDS011;4012;48.896;9.192;2023-04-15T10:08:51;2.40;;;1.87;;
7933;SDS011;4012;48.896;9.192;2023-04-15T10:11:18;5.93;;;2.57;;
7933;SDS011;4012;48.896;9.192;2023-04-15T10:13:48;3.57;;;2.20;;
7933;SDS011;4012;48.896;9.192;2023-04-15T10:16:16;2.93;;;1.87;;
7933;SDS011;4012;48.896;9.192;2023-04-15T10:18:50;3.70;;;1.83;;
7933;SDS011;4012;48.896;9.192;2023-04-15T10:21:19;1.90;;;1.70;;
7933;SDS011;4012;48.896;9.192;2023-04-15T10:23:48;2.30;;;1.70;;
7933;SDS011;4012;48.896;9.192;2023-04-15T10:26:19;4.43;;;1.90;;
7933;SDS011;4012;48.896;9.192;2023-04-15T10:28:46;3.10;;;2.07;;
7933;SDS011;4012;48.896;9.192;2023-04-15T10:31:12;4.50;;;1.80;;
7933;SDS011;4012;48.896;9.192;2023-04-15T10:33:42;3.10;;;2.10;;
7933;SDS011;4012;48.896;9.192;2023-04-15T10:36:09;4.87;;;2.10;;
7933;SDS011;4012;48.896;9.192;2023-04-15T10:38:42;2.17;;;1.83;;
7933;SDS011;4012;48.896;9.192;2023-04-15T10:44:01;2.57;;;2.10;;
7933;SDS011;4012;48.896;9.192;2023-04-15T10:46:34;4.37;;;1.83;;
7933;SDS011;4012;48.896;9.192;2023-04-15T10:49:23;2.30;;;1.63;;
7933;SDS011;4012;48.896;9.192;2023-04-15T10:51:50;2.63;;;1.90;;
7933;SDS011;4012;48.896;9.192;2023-04-15T10:59:37;2.87;;;2.47;;
7933;SDS011;4012;48.896;9.192;2023-04-15T11:05:09;3.50;;;2.50;;
7933;SDS011;4012;48.896;9.192;2023-04-15T11:07:36;4.10;;;3.17;;
7933;SDS011;4012;48.896;9.192;2023-04-15T11:12:43;3.47;;;2.60;;
7933;SDS011;4012;48.896;9.192;2023-04-15T11:15:26;3.40;;;2.50;;
7933;SDS011;4012;48.896;9.192;2023-04-15T11:17:53;4.90;;;2.93;;
7933;SDS011;4012;48.896;9.192;2023-04-15T11:20:20;4.33;;;2.67;;
7933;SDS011;4012;48.896;9.192;2023-04-15T11:22:47;6.03;;;2.60;;
7933;SDS011;4012;48.896;9.192;2023-04-15T11:25:23;4.17;;;2.83;;
7933;SDS011;4012;48.896;9.192;2023-04-15T11:27:51;3.17;;;2.20;;
7933;SDS011;4012;48.896;9.192;2023-04-15T11:30:19;3.23;;;2.37;;
7933;SDS011;4012;48.896;9.192;2023-04-15T11:32:46;4.00;;;2.50;;
7933;SDS011;4012;48.896;9.192;2023-04-15T11:35:15;3.50;;;2.30;;
7933;SDS011;4012;48.896;9.192;2023-04-15T11:37:45;3.77;;;2.53;;
7933;SDS011;4012;48.896;9.192;2023-04-15T11:40:12;3.23;;;2.20;;
7933;SDS011;4012;48.896;9.192;2023-04-15T11:42:41;2.97;;;2.00;;
7933;SDS011;4012;48.896;9.192;2023-04-15T11:45:12;2.87;;;1.77;;
7933;SDS011;4012;48.896;9.192;2023-04-15T11:47:40;3.40;;;2.37;;
7933;SDS011;4012;48.896;9.192;2023-04-15T11:50:13;2.33;;;1.60;;
7933;SDS011;4012;48.896;9.192;2023-04-15T11:52:41;3.77;;;1.87;;
7933;SDS011;4012;48.896;9.192;2023-04-15T11:55:19;4.17;;;1.87;;
7933;SDS011;4012;48.896;9.192;2023-04-15T11:57:45;2.83;;;1.90;;
7933;SDS011;4012;48.896;9.192;2023-04-15T12:00:11;4.07;;;2.13;;
7933;SDS011;4012;48.896;9.192;2023-04-15T12:02:37;2.40;;;2.00;;
7933;SDS011;4012;48.896;9.192;2023-04-15T12:05:06;3.37;;;1.60;;
7933;SDS011;4012;48.896;9.192;2023-04-15T12:07:32;4.60;;;2.07;;
7933;SDS011;4012;48.896;9.192;2023-04-15T12:09:58;3.43;;;1.80;;
7933;SDS011;4012;48.896;9.192;2023-04-15T12:12:27;3.17;;;1.80;;
7933;SDS011;4012;48.896;9.192;2023-04-15T12:14:53;2.87;;;1.83;;
7933;SDS011;4012;48.896;9.192;2023-04-15T12:17:21;4.93;;;1.87;;
7933;SDS011;4012;48.896;9.192;2023-04-15T12:19:47;3.80;;;2.20;;
7933;SDS011;4012;48.896;9.192;2023-04-15T12:22:14;3.47;;;2.60;;
7933;SDS011;4012;48.896;9.192;2023-04-15T12:24:42;2.90;;;2.40;;
7933;SDS011;4012;48.896;9.192;2023-04-15T12:27:11;4.30;;;2.60;;
7933;SDS011;4012;48.896;9.192;2023-04-15T12:29:38;2.03;;;1.83;;
7933;SDS011;4012;48.896;9.192;2023-04-15T12:32:06;4.73;;;2.20;;
7933;SDS011;4012;48.896;9.192;2023-04-15T12:34:43;2.40;;;2.03;;
7933;SDS011;4012;48.896;9.192;2023-04-15T12:37:16;4.07;;;2.20;;
7933;SDS011;4012;48.896;9.192;2023-04-15T12:39:43;1.70;;;1.40;;
7933;SDS011;4012;48.896;9.192;2023-04-15T12:42:10;2.30;;;2.10;;
7933;SDS011;4012;48.896;9.192;2023-04-15T12:44:36;3.33;;;2.17;;
7933;SDS011;4012;48.896;9.192;2023-04-15T12:47:03;2.43;;;1.50;;
7933;SDS011;4012;48.896;9.192;2023-04-15T12:49:29;1.67;;;1.50;;
7933;SDS011;4012;48.896;9.192;2023-04-15T12:51:57;1.53;;;1.43;;
7933;SDS011;4012;48.896;9.192;2023-04-15T12:54:27;2.07;;;1.50;;
7933;SDS011;4012;48.896;9.192;2023-04-15T12:56:54;2.17;;;1.50;;
7933;SDS011;4012;48.896;9.192;2023-04-15T12:59:20;3.03;;;2.00;;
7933;SDS011;4012;48.896;9.192;2023-04-15T13:01:48;2.43;;;1.90;;
7933;SDS011;4012;48.896;9.192;2023-04-15T13:04:14;2.77;;;1.70;;
7933;SDS011;4012;48.896;9.192;2023-04-15T13:06:40;1.90;;;1.73;;
7933;SDS011;4012;48.896;9.192;2023-04-15T13:09:07;3.33;;;2.43;;
7933;SDS011;4012;48.896;9.192;2023-04-15T13:11:32;2.10;;;1.90;;
7933;SDS011;4012;48.896;9.192;2023-04-15T13:14:02;2.77;;;1.53;;
7933;SDS011;4012;48.896;9.192;2023-04-15T13:16:29;2.53;;;1.60;;
7933;SDS011;4012;48.896;9.192;2023-04-15T13:18:56;1.63;;;1.40;;
7933;SDS011;4012;48.896;9.192;2023-04-15T13:21:22;1.60;;;1.00;;
7933;SDS011;4012;48.896;9.192;2023-04-15T13:23:48;3.03;;;1.20;;
7933;SDS011;4012;48.896;9.192;2023-04-15T13:26:15;1.30;;;0.80;;
7933;SDS011;4012;48.896;9.192;2023-04-15T13:28:41;1.33;;;1.17;;
7933;SDS011;4012;48.896;9.192;2023-04-15T13:31:07;1.10;;;0.90;;
7933;SDS011;4012;48.896;9.192;2023-04-15T13:33:33;1.40;;;1.30;;
7933;SDS011;4012;48.896;9.192;2023-04-15T13:35:58;1.40;;;1.10;;
7933;SDS011;4012;48.896;9.192;2023-04-15T13:38:24;2.07;;;1.20;;
7933;SDS011;4012;48.896;9.192;2023-04-15T13:40:50;2.80;;;1.20;;
7933;SDS011;4012;48.896;9.192;2023-04-15T13:43:15;1.93;;;1.30;;
7933;SDS011;4012;48.896;9.192;2023-04-15T13:45:41;1.40;;;1.20;;
7933;SDS011;4012;48.896;9.192;2023-04-15T13:48:07;1.23;;;1.03;;
7933;SDS011;4012;48.896;9.192;2023-04-15T13:50:33;2.60;;;1.03;;
7933;SDS011;4012;48.896;9.192;2023-04-15T13:52:58;1.33;;;1.00;;
7933;SDS011;4012;48.896;9.192;2023-04-15T13:55:24;1.13;;;0.93;;
7933;SDS011;4012;48.896;9.192;2023-04-15T13:57:50;1.73;;;1.10;;
7933;SDS011;4012;48.896;9.192;2023-04-15T14:00:16;1.87;;;0.90;;
7933;SDS011;4012;48.896;9.192;2023-04-15T14:02:41;1.03;;;0.97;;
7933;SDS011;4012;48.896;9.192;2023-04-15T14:05:07;1.57;;;1.00;;
7933;SDS011;4012;48.896;9.192;2023-04-15T14:07:33;1.17;;;0.93;;
7933;SDS011;4012;48.896;9.192;2023-04-15T14:09:59;1.97;;;0.93;;
7933;SDS011;4012;48.896;9.192;2023-04-15T14:12:25;1.27;;;1.10;;
7933;SDS011;4012;48.896;9.192;2023-04-15T14:14:50;1.57;;;1.10;;
7933;SDS011;4012;48.896;9.192;2023-04-15T14:17:16;3.17;;;1.20;;
7933;SDS011;4012;48.896;9.192;2023-04-15T14:19:42;2.00;;;1.40;;
7933;SDS011;4012;48.896;9.192;2023-04-15T14:22:07;2.77;;;1.43;;
7933;SDS011;4012;48.896;9.192;2023-04-15T14:24:33;1.63;;;1.20;;
7933;SDS011;4012;48.896;9.192;2023-04-15T14:26:58;1.37;;;1.20;;
7933;SDS011;4012;48.896;9.192;2023-04-15T14:29:26;1.47;;;1.27;;
7933;SDS011;4012;48.896;9.192;2023-04-15T14:31:52;1.80;;;1.53;;
7933;SDS011;4012;48.896;9.192;2023-04-15T14:34:17;1.20;;;1.10;;
7933;SDS011;4012;48.896;9.192;2023-04-15T14:36:43;0.90;;;0.80;;
7933;SDS011;4012;48.896;9.192;2023-04-15T14:39:12;2.30;;;1.00;;
7933;SDS011;4012;48.896;9.192;2023-04-15T14:41:38;1.00;;;0.80;;
7933;SDS011;4012;48.896;9.192;2023-04-15T14:44:03;2.20;;;1.00;;
7933;SDS011;4012;48.896;9.192;2023-04-15T14:46:29;1.23;;;1.13;;
7933;SDS011;4012;48.896;9.192;2023-04-15T14:48:55;1.20;;;1.10;;
7933;SDS011;4012;48.896;9.192;2023-04-15T14:51:21;3.00;;;1.30;;
7933;SDS011;4012;48.896;9.192;2023-04-15T14:53:47;4.57;;;3.33;;
7933;SDS011;4012;48.896;9.192;2023-04-15T14:56:12;1.30;;;1.10;;
7933;SDS011;4012;48.896;9.192;2023-04-15T14:58:38;1.10;;;1.00;;
7933;SDS011;4012;48.896;9.192;2023-04-15T15:01:03;1.40;;;1.27;;
7933;SDS011;4012;48.896;9.192;2023-04-15T15:03:29;1.70;;;1.30;;
7933;SDS011;4012;48.896;9.192;2023-04-15T15:05:55;1.40;;;1.17;;
7933;SDS011;4012;48.896;9.192;2023-04-15T15:08:24;2.07;;;1.50;;
7933;SDS011;4012;48.896;9.192;2023-04-15T15:10:49;1.43;;;1.30;;
7933;SDS011;4012;48.896;9.192;2023-04-15T15:13:15;1.23;;;1.17;;
7933;SDS011;4012;48.896;9.192;2023-04-15T15:15:41;3.37;;;1.30;;
7933;SDS011;4012;48.896;9.192;2023-04-15T15:18:06;1.50;;;1.33;;
7933;SDS011;4012;48.896;9.192;2023-04-15T15:20:32;3.13;;;1.70;;
7933;SDS011;4012;48.896;9.192;2023-04-15T15:22:58;3.50;;;1.70;;
7933;SDS011;4012;48.896;9.192;2023-04-15T15:25:24;2.30;;;1.17;;
7933;SDS011;4012;48.896;9.192;2023-04-15T15:27:50;2.60;;;1.10;;